Time;durP1;ratioP1;P1;durP2;ratioP2;P2;SDS_P1;SDS_P2;PMS_P1;PMS_P2;Temp;Humidity;BMP_temperature;BMP_pressure;BME280_temperature;BME280_humidity;BME280_pressure;Samples;Min_cycle;Max_cycle;Signal;HPM_P1;HPM_P2
2022/07/15 00:01:10;;;;;;;;;;;;;;;14.95;100.00;99018.63;1723617;83;20142;-71
2022/07/15 00:03:37;;;;;;;;;;;;;;;14.97;100.00;99020.46;1723575;83;20640;-70
2022/07/15 00:06:03;;;;;;;;;;;;;;;15.01;100.00;99027.45;1723811;83;20137;-71
2022/07/15 00:08:30;;;;;;;;;;;;;;;15.05;100.00;99015.88;1723657;83;20191;-71
2022/07/15 00:10:56;;;;;;;;;;;;;;;15.09;100.00;99014.80;1724032;83;21092;-73
2022/07/15 00:13:24;;;;;;;;;;;;;;;15.15;100.00;99016.72;1723498;83;20498;-73
2022/07/15 00:15:51;;;;;;;;;;;;;;;15.19;100.00;99018.41;1723879;83;20474;-71
2022/07/15 00:18:19;;;;;;;;;;;;;;;15.22;100.00;99007.79;1723877;83;20632;-71
2022/07/15 00:20:46;;;;;;;;;;;;;;;15.24;100.00;99004.89;1723838;83;20153;-71
2022/07/15 00:23:12;;;;;;;;;;;;;;;15.29;100.00;99010.72;1723905;83;21496;-71
2022/07/15 00:25:39;;;;;;;;;;;;;;;15.32;100.00;99005.86;1723884;83;20152;-71
2022/07/15 00:28:06;;;;;;;;;;;;;;;15.35;100.00;99007.90;1723787;83;20157;-70
2022/07/15 00:30:40;;;;;;;;;;;;;;;15.38;100.00;99003.03;1723819;83;20200;-71
2022/07/15 00:33:07;;;;;;;;;;;;;;;15.43;100.00;99004.13;1723542;83;20204;-71
2022/07/15 00:35:34;;;;;;;;;;;;;;;15.46;100.00;99002.03;1724190;83;21133;-71
2022/07/15 00:38:01;;;;;;;;;;;;;;;15.49;100.00;99002.69;1723540;83;20144;-71
2022/07/15 00:40:28;;;;;;;;;;;;;;;15.53;100.00;98997.45;1723871;83;20132;-71
2022/07/15 00:42:55;;;;;;;;;;;;;;;15.55;100.00;98992.15;1724238;83;20173;-71
2022/07/15 00:45:23;;;;;;;;;;;;;;;15.58;100.00;98988.69;1723453;83;20176;-71
2022/07/15 00:47:51;;;;;;;;;;;;;;;15.62;100.00;98988.16;1723556;83;21086;-72
2022/07/15 00:50:18;;;;;;;;;;;;;;;15.64;100.00;98990.78;1723691;83;20144;-71
2022/07/15 00:52:47;;;;;;;;;;;;;;;15.65;100.00;98984.08;1723514;83;20184;-71
2022/07/15 00:55:14;;;;;;;;;;;;;;;15.66;100.00;98985.68;1722697;83;20161;-71
2022/07/15 00:57:44;;;;;;;;;;;;;;;15.66;100.00;98982.91;1723581;83;20420;-71
2022/07/15 01:00:12;;;;;;;;;;;;;;;15.67;100.00;98980.37;1723607;83;21636;-72
2022/07/15 01:02:43;;;;;;;;;;;;;;;15.68;100.00;98988.89;1723691;83;20088;-71
2022/07/15 01:05:10;;;;;;;;;;;;;;;15.70;100.00;98992.09;1723816;83;20153;-71
2022/07/15 01:07:38;;;;;;;;;;;;;;;15.71;100.00;98995.08;1723783;83;20124;-71
2022/07/15 01:10:06;;;;;;;;;;;;;;;15.71;100.00;98988.16;1723804;83;20200;-71
2022/07/15 01:12:34;;;;;;;;;;;;;;;15.72;100.00;98988.38;1723585;83;21178;-72
2022/07/15 01:15:01;;;;;;;;;;;;;;;15.74;100.00;98979.72;1723288;83;20089;-71
2022/07/15 01:17:28;;;;;;;;;;;;;;;15.74;100.00;98977.75;1724102;83;20109;-72
2022/07/15 01:19:55;;;;;;;;;;;;;;;15.73;100.00;98985.83;1723702;83;20479;-71
2022/07/15 01:22:22;;;;;;;;;;;;;;;15.73;100.00;98987.22;1723578;83;20487;-71
2022/07/15 01:24:51;;;;;;;;;;;;;;;15.71;100.00;98988.16;1723765;83;39136;-72
2022/07/15 01:27:20;;;;;;;;;;;;;;;15.70;100.00;98985.17;1723476;83;20252;-71
2022/07/15 01:29:48;;;;;;;;;;;;;;;15.71;100.00;98981.83;1723578;83;20180;-72
2022/07/15 01:32:16;;;;;;;;;;;;;;;15.71;100.00;98979.06;1724217;83;20193;-71
2022/07/15 01:34:42;;;;;;;;;;;;;;;15.70;100.00;98979.64;1724316;83;20168;-71
2022/07/15 01:37:10;;;;;;;;;;;;;;;15.69;100.00;98975.27;1723828;83;21154;-71
2022/07/15 01:39:38;;;;;;;;;;;;;;;15.69;100.00;98973.89;1723579;83;20161;-71
2022/07/15 01:42:05;;;;;;;;;;;;;;;15.68;100.00;98971.48;1723640;83;20474;-71
2022/07/15 01:44:33;;;;;;;;;;;;;;;15.67;100.00;98972.06;1724123;83;20216;-71
2022/07/15 01:47:00;;;;;;;;;;;;;;;15.67;100.00;98970.69;1723961;83;20185;-72
2022/07/15 01:49:36;;;;;;;;;;;;;;;15.69;100.00;98972.50;1723501;83;21246;-71
2022/07/15 01:52:05;;;;;;;;;;;;;;;15.70;100.00;98968.58;1698368;83;20152;-71
2022/07/15 01:54:32;;;;;;;;;;;;;;;15.70;100.00;98967.19;1698839;83;20435;-71
2022/07/15 01:57:00;;;;;;;;;;;;;;;15.72;100.00;98973.74;1723730;83;20176;-71
2022/07/15 01:59:28;;;;;;;;;;;;;;;15.71;100.00;98975.71;1723658;83;20440;-72
2022/07/15 02:01:56;;;;;;;;;;;;;;;15.74;100.00;98977.75;1723756;83;21098;-72
2022/07/15 02:04:22;;;;;;;;;;;;;;;15.81;100.00;98977.09;1724041;83;20140;-71
2022/07/15 02:06:49;;;;;;;;;;;;;;;15.87;100.00;98978.41;1723390;83;20152;-71
2022/07/15 02:09:17;;;;;;;;;;;;;;;15.93;100.00;98985.84;1723665;83;20137;-69
2022/07/15 02:11:46;;;;;;;;;;;;;;;16.00;100.00;98983.22;1723651;83;20491;-70
2022/07/15 02:14:13;;;;;;;;;;;;;;;16.07;100.00;98977.23;1723545;83;21233;-70
2022/07/15 02:16:40;;;;;;;;;;;;;;;16.15;100.00;98974.83;1723764;83;20200;-69
2022/07/15 02:19:09;;;;;;;;;;;;;;;16.21;100.00;98976.69;1723115;83;20168;-69
2022/07/15 02:21:36;;;;;;;;;;;;;;;16.27;100.00;98980.75;1723697;83;20192;-69
2022/07/15 02:24:03;;;;;;;;;;;;;;;16.30;100.00;98966.17;1724061;83;20120;-69
2022/07/15 02:26:29;;;;;;;;;;;;;;;16.33;100.00;98968.20;1723481;83;21851;-70
2022/07/15 02:28:57;;;;;;;;;;;;;;;16.36;100.00;98968.05;1723409;83;20436;-69
2022/07/15 02:31:26;;;;;;;;;;;;;;;16.38;100.00;98973.45;1723536;83;20132;-70
2022/07/15 02:33:52;;;;;;;;;;;;;;;16.39;100.00;98979.78;1723698;83;20181;-70
2022/07/15 02:36:20;;;;;;;;;;;;;;;16.40;100.00;98976.64;1723673;83;20184;-70
2022/07/15 02:38:46;;;;;;;;;;;;;;;16.43;100.00;98979.27;1723514;83;21794;-70
2022/07/15 02:41:13;;;;;;;;;;;;;;;16.44;100.00;98982.25;1723892;83;20101;-70
2022/07/15 02:43:41;;;;;;;;;;;;;;;16.45;100.00;98981.09;1724033;83;20088;-70
2022/07/15 02:46:11;;;;;;;;;;;;;;;16.48;100.00;98979.77;1724527;83;20121;-70
2022/07/15 02:48:38;;;;;;;;;;;;;;;16.53;100.00;98975.89;1724172;83;20467;-70
2022/07/15 02:51:05;;;;;;;;;;;;;;;16.54;100.00;98965.02;1723946;83;21129;-70
2022/07/15 02:53:33;;;;;;;;;;;;;;;16.56;100.00;98966.04;1724136;83;20208;-70
2022/07/15 02:56:01;;;;;;;;;;;;;;;16.55;100.00;98965.82;1723889;83;20204;-70
2022/07/15 02:58:29;;;;;;;;;;;;;;;16.54;100.00;98970.56;1724240;83;20163;-70
2022/07/15 03:00:55;;;;;;;;;;;;;;;16.54;100.00;98976.11;1724321;83;20184;-70
2022/07/15 03:03:21;;;;;;;;;;;;;;;16.51;100.00;98976.84;1724128;83;22121;-70
2022/07/15 03:05:49;;;;;;;;;;;;;;;16.48;100.00;98973.42;1724025;83;20153;-70
2022/07/15 03:08:16;;;;;;;;;;;;;;;16.48;100.00;98976.19;1724261;83;20156;-70
2022/07/15 03:10:43;;;;;;;;;;;;;;;16.47;100.00;98970.44;1724105;83;20101;-71
2022/07/15 03:13:09;;;;;;;;;;;;;;;16.45;100.00;98977.73;1724100;83;20172;-70
2022/07/15 03:15:37;;;;;;;;;;;;;;;16.46;100.00;98989.03;1716902;83;21158;-70
2022/07/15 03:18:03;;;;;;;;;;;;;;;16.45;100.00;98996.32;1714843;83;20156;-70
2022/07/15 03:20:30;;;;;;;;;;;;;;;16.44;100.00;99000.26;1715084;83;20125;-70
2022/07/15 03:22:56;;;;;;;;;;;;;;;16.46;100.00;98982.69;1714756;83;20212;-69
2022/07/15 03:25:24;;;;;;;;;;;;;;;16.49;100.00;98975.83;1714865;83;20121;-71
2022/07/15 03:27:50;;;;;;;;;;;;;;;16.50;100.00;98971.88;1689967;83;21130;-71
2022/07/15 03:30:18;;;;;;;;;;;;;;;16.51;100.00;98962.98;1714885;83;20085;-75
2022/07/15 03:32:44;;;;;;;;;;;;;;;16.51;100.00;98960.22;1714584;83;20113;-70
2022/07/15 03:35:11;;;;;;;;;;;;;;;16.51;100.00;98961.61;1715000;83;20488;-69
2022/07/15 03:37:38;;;;;;;;;;;;;;;16.52;100.00;98972.90;1714787;83;20133;-70
2022/07/15 03:40:05;;;;;;;;;;;;;;;16.55;100.00;98974.13;1714538;83;21058;-69
2022/07/15 03:42:34;;;;;;;;;;;;;;;16.60;100.00;98973.83;1714436;83;20206;-70
2022/07/15 03:45:00;;;;;;;;;;;;;;;16.66;100.00;98962.09;1714972;83;20085;-69
2022/07/15 03:47:29;;;;;;;;;;;;;;;16.72;100.00;98968.13;1714280;83;20519;-69
2022/07/15 03:49:55;;;;;;;;;;;;;;;16.78;100.00;98979.09;1714475;83;20162;-69
2022/07/15 03:52:22;;;;;;;;;;;;;;;16.79;100.00;98985.66;1714266;83;22164;-69
2022/07/15 03:54:48;;;;;;;;;;;;;;;16.83;100.00;98992.64;1714270;83;20166;-69
2022/07/15 03:57:15;;;;;;;;;;;;;;;16.87;100.00;98990.73;1714523;83;20152;-71
2022/07/15 03:59:42;;;;;;;;;;;;;;;16.91;100.00;98994.36;1714481;83;20133;-70
2022/07/15 04:02:08;;;;;;;;;;;;;;;16.95;100.00;98991.65;1714776;83;20110;-70
2022/07/15 04:04:35;;;;;;;;;;;;;;;16.98;100.00;98992.30;1714322;83;21157;-70
2022/07/15 04:07:01;;;;;;;;;;;;;;;16.97;100.00;98990.10;1714537;83;20114;-69
2022/07/15 04:09:28;;;;;;;;;;;;;;;16.99;100.00;98982.22;1714505;83;20464;-70
2022/07/15 04:11:55;;;;;;;;;;;;;;;17.01;100.00;98988.19;1714473;83;20199;-70
2022/07/15 04:14:22;;;;;;;;;;;;;;;17.05;100.00;98991.82;1715999;83;20122;-70
2022/07/15 04:16:49;;;;;;;;;;;;;;;17.08;100.00;98991.08;1724473;83;21521;-70
2022/07/15 04:19:23;;;;;;;;;;;;;;;17.11;100.00;98998.66;1723721;83;20141;-70
2022/07/15 04:21:51;;;;;;;;;;;;;;;17.13;100.00;98996.31;1724542;83;20128;-71
2022/07/15 04:24:17;;;;;;;;;;;;;;;17.14;100.00;98977.11;1724762;83;20428;-70
2022/07/15 04:26:44;;;;;;;;;;;;;;;17.16;100.00;98973.38;1724930;83;20081;-70
2022/07/15 04:29:10;;;;;;;;;;;;;;;17.19;100.00;98957.16;1724978;83;21958;-71
2022/07/15 04:31:37;;;;;;;;;;;;;;;17.22;100.00;98948.09;1724686;83;20113;-72
2022/07/15 04:34:05;;;;;;;;;;;;;;;17.24;100.00;98944.36;1723536;83;20073;-72
2022/07/15 04:36:32;;;;;;;;;;;;;;;17.25;100.00;98930.12;1724436;83;20101;-70
2022/07/15 04:38:59;;;;;;;;;;;;;;;17.26;100.00;98920.62;1724547;83;20488;-70
2022/07/15 04:41:26;;;;;;;;;;;;;;;17.29;100.00;98917.69;1724484;83;21078;-70
2022/07/15 04:43:52;;;;;;;;;;;;;;;17.31;100.00;98908.40;1724427;83;20129;-71
2022/07/15 04:46:19;;;;;;;;;;;;;;;17.32;100.00;98909.41;1724344;83;20180;-70
2022/07/15 04:51:33;;;;;;;;;;;;;;;17.40;100.00;98895.81;1724047;83;20152;-70
2022/07/15 04:54:00;;;;;;;;;;;;;;;17.46;100.00;98883.21;1724400;83;21843;-71
2022/07/15 04:56:27;;;;;;;;;;;;;;;17.53;100.00;98878.34;1724523;83;20463;-70
2022/07/15 04:58:55;;;;;;;;;;;;;;;17.59;100.00;98865.73;1722741;83;20452;-75
2022/07/15 05:01:22;;;;;;;;;;;;;;;17.66;100.00;98868.62;1724190;83;20576;-80
2022/07/15 05:03:49;;;;;;;;;;;;;;;17.75;100.00;98868.31;1724699;83;20085;-75
2022/07/15 05:06:17;;;;;;;;;;;;;;;17.85;100.00;98876.55;1724148;83;21150;-80
2022/07/15 05:08:45;;;;;;;;;;;;;;;17.93;100.00;98869.87;1724367;83;21081;-77
2022/07/15 05:11:13;;;;;;;;;;;;;;;17.99;100.00;98880.25;1724669;83;20432;-78
2022/07/15 05:13:39;;;;;;;;;;;;;;;18.03;100.00;98868.59;1722538;83;20164;-82
2022/07/15 05:16:07;;;;;;;;;;;;;;;18.09;100.00;98868.45;1705459;83;20125;-85
2022/07/15 05:18:35;;;;;;;;;;;;;;;18.19;100.00;98864.18;1698726;84;21552;-80
2022/07/15 05:21:02;;;;;;;;;;;;;;;18.33;100.00;98855.18;1698740;84;20132;-77
2022/07/15 05:23:31;;;;;;;;;;;;;;;18.51;100.00;98855.30;1698666;83;20097;-77
2022/07/15 05:25:59;;;;;;;;;;;;;;;18.68;100.00;98855.47;1698616;84;20085;-77
2022/07/15 05:28:27;;;;;;;;;;;;;;;18.88;100.00;98860.77;1679087;84;20153;-80
2022/07/15 05:30:54;;;;;;;;;;;;;;;19.04;100.00;98860.67;1698729;84;21137;-85
2022/07/15 05:33:21;;;;;;;;;;;;;;;19.21;100.00;98861.92;1698818;84;20109;-89
2022/07/15 05:35:48;;;;;;;;;;;;;;;19.38;100.00;98861.22;1698919;84;20440;-87
2022/07/15 05:38:14;;;;;;;;;;;;;;;19.52;100.00;98865.28;1698974;84;20101;-84
2022/07/15 05:40:41;;;;;;;;;;;;;;;19.64;100.00;98862.91;1678846;84;20424;-73
2022/07/15 05:43:07;;;;;;;;;;;;;;;19.81;100.00;98860.58;1698835;84;21204;-72
2022/07/15 05:45:36;;;;;;;;;;;;;;;19.98;100.00;98851.47;1698478;83;20097;-70
2022/07/15 05:48:06;;;;;;;;;;;;;;;20.16;100.00;98852.89;1698786;84;20113;-70
2022/07/15 05:50:34;;;;;;;;;;;;;;;20.30;100.00;98851.48;1698291;84;20117;-72
2022/07/15 05:53:01;;;;;;;;;;;;;;;20.45;100.00;98854.50;1698849;84;20169;-72
2022/07/15 05:55:29;;;;;;;;;;;;;;;20.60;100.00;98849.72;1698669;84;21781;-72
2022/07/15 05:57:55;;;;;;;;;;;;;;;20.77;100.00;98837.75;1678327;84;20469;-69
2022/07/15 06:00:23;;;;;;;;;;;;;;;20.91;100.00;98837.70;1698536;84;20085;-69
2022/07/15 06:02:51;;;;;;;;;;;;;;;21.09;100.00;98835.66;1699848;83;20089;-67
2022/07/15 06:05:22;;;;;;;;;;;;;;;21.30;98.41;98832.03;1710696;82;20121;-74
2022/07/15 06:07:53;;;;;;;;;;;;;;;21.51;97.44;98835.31;1694721;83;21172;-75
2022/07/15 06:10:22;;;;;;;;;;;;;;;21.69;89.82;98829.05;1701789;83;20146;-68
2022/07/15 06:12:49;;;;;;;;;;;;;;;21.80;85.76;98837.36;1727999;83;20130;-69
2022/07/15 06:15:19;;;;;;;;;;;;;;;21.86;85.84;98839.12;1727783;82;20087;-68
2022/07/15 06:17:51;;;;;;;;;;;;;;;21.87;86.02;98828.94;1727904;81;20484;-69
2022/07/15 06:20:21;;;;;;;;;;;;;;;21.87;86.24;98822.56;1722977;83;21338;-69
2022/07/15 06:22:46;;;;;;;;;;;;;;;21.91;87.14;98824.73;1697326;83;20156;-76
2022/07/15 06:25:13;;;;;;;;;;;;;;;22.02;87.20;98819.27;1697204;84;20160;-69
2022/07/15 06:27:46;;;;;;;;;;;;;;;22.19;83.87;98823.73;1698533;84;20142;-69
2022/07/15 06:30:15;;;;;;;;;;;;;;;22.35;83.50;98822.02;1678400;84;20121;-71
2022/07/15 06:32:43;;;;;;;;;;;;;;;22.53;80.94;98815.48;1698548;84;21162;-71
2022/07/15 06:35:13;;;;;;;;;;;;;;;22.66;79.22;98816.52;1698693;84;20077;-76
2022/07/15 06:37:39;;;;;;;;;;;;;;;22.72;77.74;98808.66;1707709;83;20151;-76
2022/07/15 06:40:08;;;;;;;;;;;;;;;22.80;78.83;98791.23;1704195;83;20085;-69
2022/07/15 06:42:34;;;;;;;;;;;;;;;22.88;78.46;98770.97;1695873;83;20121;-70
2022/07/15 06:45:05;;;;;;;;;;;;;;;23.01;78.52;98801.41;1709894;83;21768;-70
2022/07/15 06:47:32;;;;;;;;;;;;;;;23.15;77.55;98804.62;1727828;82;20087;-71
2022/07/15 06:50:00;;;;;;;;;;;;;;;23.23;75.70;98795.72;1725110;83;20101;-86
2022/07/15 06:52:27;;;;;;;;;;;;;;;23.29;75.38;98795.44;1711490;83;20197;-71
2022/07/15 06:54:54;;;;;;;;;;;;;;;23.33;74.52;98798.99;1698771;83;20125;-73
2022/07/15 06:57:22;;;;;;;;;;;;;;;23.34;72.90;98804.78;1698715;84;21243;-74
2022/07/15 06:59:50;;;;;;;;;;;;;;;23.36;72.76;98811.36;1698642;84;20156;-72
2022/07/15 07:02:17;;;;;;;;;;;;;;;23.41;73.36;98810.11;1678914;84;20121;-72
2022/07/15 07:04:44;;;;;;;;;;;;;;;23.46;72.04;98810.44;1698631;84;20174;-72
2022/07/15 07:07:12;;;;;;;;;;;;;;;23.51;72.84;98815.57;1698832;84;20216;-73
2022/07/15 07:09:39;;;;;;;;;;;;;;;23.57;72.09;98818.73;1698590;83;21505;-80
2022/07/15 07:12:05;;;;;;;;;;;;;;;23.65;70.38;98823.03;1678869;84;20142;-80
2022/07/15 07:14:33;;;;;;;;;;;;;;;23.73;70.10;98821.69;1698723;84;20105;-83
2022/07/15 07:16:59;;;;;;;;;;;;;;;23.82;68.05;98827.56;1698701;84;20150;-79
2022/07/15 07:19:25;;;;;;;;;;;;;;;23.90;69.44;98828.25;1698314;84;20176;-81
2022/07/15 07:21:52;;;;;;;;;;;;;;;24.03;69.58;98830.06;1698572;84;21150;-82
2022/07/15 07:24:18;;;;;;;;;;;;;;;24.13;68.87;98826.91;1698743;83;20109;-74
2022/07/15 07:26:45;;;;;;;;;;;;;;;24.19;68.34;98826.62;1698607;84;20160;-75
2022/07/15 07:29:14;;;;;;;;;;;;;;;24.27;68.28;98826.69;1716551;83;20083;-76
2022/07/15 07:31:41;;;;;;;;;;;;;;;24.36;65.58;98834.56;1727892;83;20082;-75
2022/07/15 07:34:07;;;;;;;;;;;;;;;24.48;66.13;98838.78;1712261;83;21216;-80
2022/07/15 07:36:34;;;;;;;;;;;;;;;24.61;64.12;98828.55;1695665;84;20117;-75
2022/07/15 07:39:00;;;;;;;;;;;;;;;24.79;65.60;98828.23;1696005;83;20097;-91
2022/07/15 07:41:28;;;;;;;;;;;;;;;25.04;63.63;98819.34;1695604;84;20522;-89
2022/07/15 07:43:56;;;;;;;;;;;;;;;25.24;62.46;98832.80;1695602;84;20443;-85
2022/07/15 07:46:22;;;;;;;;;;;;;;;25.38;63.20;98828.30;1695744;84;21019;-76
2022/07/15 07:48:50;;;;;;;;;;;;;;;25.53;62.14;98830.17;1695384;83;20114;-75
2022/07/15 07:51:17;;;;;;;;;;;;;;;25.60;60.95;98837.84;1695747;84;20188;-74
2022/07/15 07:53:43;;;;;;;;;;;;;;;25.66;60.93;98845.97;1695409;84;20125;-76
2022/07/15 07:56:10;;;;;;;;;;;;;;;25.73;59.80;98842.22;1695178;84;20129;-88
2022/07/15 07:58:37;;;;;;;;;;;;;;;25.74;57.31;98837.38;1695478;84;21784;-81
2022/07/15 08:01:04;;;;;;;;;;;;;;;25.63;56.73;98844.61;1695130;84;20125;-77
2022/07/15 08:03:31;;;;;;;;;;;;;;;25.56;57.91;98851.17;1695326;84;20317;-72
2022/07/15 08:05:58;;;;;;;;;;;;;;;25.52;58.23;98853.88;1695466;84;20241;-73
2022/07/15 08:08:25;;;;;;;;;;;;;;;25.49;59.06;98852.72;1695617;84;20121;-75
2022/07/15 08:10:54;;;;;;;;;;;;;;;25.40;58.42;98862.38;1695196;84;20125;-74
2022/07/15 08:13:22;;;;;;;;;;;;;;;25.27;59.95;98866.43;1695277;84;20130;-74
2022/07/15 08:15:50;;;;;;;;;;;;;;;25.21;60.52;98878.59;1719052;82;20268;-88
2022/07/15 08:18:17;;;;;;;;;;;;;;;25.14;66.17;98878.12;1727541;83;20118;-86
2022/07/15 08:20:44;;;;;;;;;;;;;;;24.97;69.02;98877.22;1696008;83;20089;-73
2022/07/15 08:23:10;;;;;;;;;;;;;;;24.79;70.83;98886.56;1705567;83;21189;-75
2022/07/15 08:25:37;;;;;;;;;;;;;;;24.72;71.74;98881.07;1727210;83;20186;-74
2022/07/15 08:28:05;;;;;;;;;;;;;;;24.73;73.32;98881.86;1699898;83;20432;-73
2022/07/15 08:30:33;;;;;;;;;;;;;;;24.81;74.14;98884.12;1695310;84;20188;-74
2022/07/15 08:33:04;;;;;;;;;;;;;;;24.92;74.26;98897.33;1694928;84;20213;-73
2022/07/15 08:35:28;;;;;;;;;;;;;;;24.96;72.57;98902.92;1694904;83;21182;-73
2022/07/15 08:37:54;;;;;;;;;;;;;;;24.96;71.01;98898.09;1695157;84;20093;-73
2022/07/15 08:40:21;;;;;;;;;;;;;;;24.96;72.85;98905.72;1694282;84;20598;-73
2022/07/15 08:42:47;;;;;;;;;;;;;;;24.96;71.91;98906.52;1694327;84;20143;-73
2022/07/15 08:45:15;;;;;;;;;;;;;;;24.95;71.10;98909.11;1695111;83;20148;-73
2022/07/15 08:47:44;;;;;;;;;;;;;;;24.87;71.22;98913.27;1695155;84;21212;-73
2022/07/15 08:50:13;;;;;;;;;;;;;;;24.80;72.48;98914.02;1695183;84;20431;-73
2022/07/15 08:52:39;;;;;;;;;;;;;;;24.71;71.61;98921.58;1694942;84;20168;-73
2022/07/15 08:55:07;;;;;;;;;;;;;;;24.64;72.11;98917.48;1695131;84;20121;-73
2022/07/15 08:57:33;;;;;;;;;;;;;;;24.58;73.05;98913.57;1695162;84;20145;-73
2022/07/15 09:00:00;;;;;;;;;;;;;;;24.57;73.34;98924.00;1695148;84;21112;-72
2022/07/15 09:02:26;;;;;;;;;;;;;;;24.50;72.64;98926.13;1695022;84;20121;-73
2022/07/15 09:05:23;;;;;;;;;;;;;;;24.29;72.88;98929.43;1694740;84;20526;-74
2022/07/15 09:07:59;;;;;;;;;;;;;;;24.11;73.95;98937.30;1695041;84;20101;-73
2022/07/15 09:10:53;;;;;;;;;;;;;;;23.90;73.38;98941.17;1695182;84;20109;-73
2022/07/15 09:13:43;;;;;;;;;;;;;;;23.77;73.89;98937.33;1695316;84;21176;-73
2022/07/15 09:16:08;;;;;;;;;;;;;;;23.69;75.01;98946.42;1693965;83;20139;-73
2022/07/15 09:18:38;;;;;;;;;;;;;;;23.68;76.34;98947.63;1695204;84;20499;-74
2022/07/15 09:21:16;;;;;;;;;;;;;;;23.70;77.10;98950.02;1706274;83;20158;-74
2022/07/15 09:23:42;;;;;;;;;;;;;;;23.73;76.77;98952.59;1727244;83;20114;-74
2022/07/15 09:26:29;;;;;;;;;;;;;;;23.71;76.02;98952.41;1727321;83;21091;-74
2022/07/15 09:28:56;;;;;;;;;;;;;;;23.65;75.63;98950.51;1711502;83;20152;-74
2022/07/15 09:34:17;;;;;;;;;;;;;;;23.42;72.35;98943.33;1727361;83;20423;-72
2022/07/15 09:36:50;;;;;;;;;;;;;;;23.31;71.84;98946.23;1727311;83;20115;-72
2022/07/15 09:39:16;;;;;;;;;;;;;;;23.25;72.10;98950.70;1727801;82;20099;-72
2022/07/15 09:41:43;;;;;;;;;;;;;;;23.27;72.94;98948.28;1726893;82;20143;-72
2022/07/15 09:44:15;;;;;;;;;;;;;;;23.29;72.87;98951.46;1727432;83;20095;-73
2022/07/15 09:46:49;;;;;;;;;;;;;;;23.29;73.58;98948.66;1727151;83;20095;-73
2022/07/15 09:49:25;;;;;;;;;;;;;;;23.26;73.04;98955.89;1726567;82;20167;-73
2022/07/15 09:51:54;;;;;;;;;;;;;;;;;;1728088;83;21127;-73
2022/07/15 09:54:24;;;;;;;;;;;;;;;23.09;73.47;98957.48;1727439;83;20425;-73
2022/07/15 09:56:50;;;;;;;;;;;;;;;23.01;73.55;98964.55;1727223;83;20103;-73
2022/07/15 09:59:17;;;;;;;;;;;;;;;22.94;73.96;98963.80;1727829;83;20150;-72
2022/07/15 10:01:47;;;;;;;;;;;;;;;22.88;74.65;98950.86;1727692;83;20206;-73
2022/07/15 10:04:12;;;;;;;;;;;;;;;22.91;75.63;98947.84;1727997;82;21787;-73
2022/07/15 10:06:38;;;;;;;;;;;;;;;23.00;75.69;98953.16;1706844;83;20103;-73
2022/07/15 10:09:06;;;;;;;;;;;;;;;23.06;75.30;98957.70;1727469;83;20085;-73
2022/07/15 10:11:34;;;;;;;;;;;;;;;23.16;76.10;98964.39;1727573;82;20090;-74
2022/07/15 10:14:08;;;;;;;;;;;;;;;23.27;75.91;98976.28;1727421;83;20087;-69
2022/07/15 10:16:57;;;;;;;;;;;;;;;23.31;75.47;98982.64;1726004;82;21177;-72
2022/07/15 10:19:42;;;;;;;;;;;;;;;23.33;75.39;98986.63;1727958;82;20082;-85
2022/07/15 10:22:28;;;;;;;;;;;;;;;23.36;75.35;98995.59;1727882;83;20118;-75
2022/07/15 10:25:16;;;;;;;;;;;;;;;23.41;75.00;98994.34;1727417;83;21087;-73
2022/07/15 10:27:53;;;;;;;;;;;;;;;23.46;75.46;99002.30;1728034;83;20148;-73
2022/07/15 10:30:21;;;;;;;;;;;;;;;23.52;74.84;99002.05;1727952;83;21156;-74
2022/07/15 10:33:10;;;;;;;;;;;;;;;23.62;75.96;99008.78;1714857;83;20112;-73
2022/07/15 10:35:41;;;;;;;;;;;;;;;23.75;74.37;99008.41;1704673;82;20108;-73
2022/07/15 10:38:28;;;;;;;;;;;;;;;23.79;73.93;99006.36;1698688;84;20128;-73
2022/07/15 10:41:03;;;;;;;;;;;;;;;23.81;73.60;99008.75;1698949;84;20436;-75
2022/07/15 10:43:45;;;;;;;;;;;;;;;23.80;72.92;99019.77;1697483;84;21159;-71
2022/07/15 10:46:24;;;;;;;;;;;;;;;23.62;74.40;99022.79;1709682;83;20130;-72
2022/07/15 10:48:53;;;;;;;;;;;;;;;23.44;74.56;99037.54;1727159;82;20465;-71
2022/07/15 10:51:39;;;;;;;;;;;;;;;23.24;74.59;99045.72;1700261;83;20071;-70
2022/07/15 10:54:09;;;;;;;;;;;;;;;23.07;75.23;99052.28;1728057;83;20430;-78
2022/07/15 10:56:43;;;;;;;;;;;;;;;22.99;75.37;99044.53;1725593;81;21157;-77
2022/07/15 10:59:23;;;;;;;;;;;;;;;22.78;73.98;99019.47;1706905;83;20103;-83
2022/07/15 11:02:00;;;;;;;;;;;;;;;22.48;75.02;98999.10;1712154;83;20505;-88
2022/07/15 11:04:28;;;;;;;;;;;;;;;22.19;76.22;98996.45;1728076;83;20126;-89
2022/07/15 11:07:09;;;;;;;;;;;;;;;21.99;78.31;99040.03;1732033;82;20115;-84
2022/07/15 11:09:52;;;;;;;;;;;;;;;21.81;79.39;99044.89;1728122;82;21334;-75
2022/07/15 11:12:23;;;;;;;;;;;;;;;21.60;80.83;99068.88;1727922;83;20115;-77
2022/07/15 11:14:52;;;;;;;;;;;;;;;21.43;81.90;99064.91;1728022;83;20102;-82
2022/07/15 11:17:29;;;;;;;;;;;;;;;21.29;82.47;99062.73;1720002;82;20436;-79
2022/07/15 11:19:58;;;;;;;;;;;;;;;21.14;84.06;99071.67;1714742;83;20458;-82
2022/07/15 11:22:27;;;;;;;;;;;;;;;21.03;85.28;99073.66;1753192;82;21147;-82
2022/07/15 11:24:54;;;;;;;;;;;;;;;20.91;86.87;99066.47;1751242;81;20409;-89
2022/07/15 11:27:22;;;;;;;;;;;;;;;20.82;87.68;99082.79;1750427;82;20118;-79
2022/07/15 11:29:51;;;;;;;;;;;;;;;20.69;88.63;99085.17;1747464;82;20099;-78
2022/07/15 11:32:19;;;;;;;;;;;;;;;20.58;89.59;99087.14;1754652;82;20086;-82
2022/07/15 11:34:52;;;;;;;;;;;;;;;20.52;91.31;99093.48;1754867;81;21740;-84
2022/07/15 11:37:30;;;;;;;;;;;;;;;20.42;92.63;99095.05;1754452;82;20082;-73
2022/07/15 11:40:11;;;;;;;;;;;;;;;20.32;93.64;99090.98;1754299;81;20165;-86
2022/07/15 11:45:35;;;;;;;;;;;;;;;20.20;94.41;99083.59;1754968;82;20411;-88
2022/07/15 11:48:02;;;;;;;;;;;;;;;20.14;93.55;99076.20;1753899;82;21196;-79
2022/07/15 11:50:31;;;;;;;;;;;;;;;20.05;93.78;99075.76;1747389;82;20158;-78
2022/07/15 11:53:02;;;;;;;;;;;;;;;19.94;92.49;99077.69;1735754;82;20114;-77
2022/07/15 11:55:32;;;;;;;;;;;;;;;19.88;92.61;99088.40;1754180;82;20192;-78
2022/07/15 11:57:59;;;;;;;;;;;;;;;19.86;93.21;99088.58;1734317;82;20478;-73
2022/07/15 12:00:29;;;;;;;;;;;;;;;19.85;93.05;99094.74;1723584;83;20489;-73
2022/07/15 12:03:12;;;;;;;;;;;;;;;19.81;93.57;99095.91;1709023;82;20193;-74
2022/07/15 12:05:40;;;;;;;;;;;;;;;19.76;92.79;99089.52;1718154;82;20154;-76
2022/07/15 12:08:15;;;;;;;;;;;;;;;19.73;94.42;99102.02;1717177;83;20152;-77
2022/07/15 12:10:47;;;;;;;;;;;;;;;19.75;94.90;99099.06;1717349;83;20138;-83
2022/07/15 12:13:14;;;;;;;;;;;;;;;19.77;95.41;99100.86;1717595;82;20976;-85
2022/07/15 12:15:46;;;;;;;;;;;;;;;19.81;96.02;99111.23;1692148;83;20416;-82
2022/07/15 12:18:16;;;;;;;;;;;;;;;19.87;96.46;99115.25;1709526;83;20109;-85
2022/07/15 12:20:45;;;;;;;;;;;;;;;19.97;95.58;99121.48;1705146;83;20370;-75
2022/07/15 12:23:13;;;;;;;;;;;;;;;20.05;94.57;99125.91;1705788;82;20174;-80
2022/07/15 12:25:45;;;;;;;;;;;;;;;20.11;94.46;99119.58;1704684;84;21174;-74
2022/07/15 12:28:12;;;;;;;;;;;;;;;20.18;94.17;99117.42;1705404;83;20132;-83
2022/07/15 12:30:39;;;;;;;;;;;;;;;20.25;93.51;99112.45;1655957;84;20222;-75
2022/07/15 12:33:19;;;;;;;;;;;;;;;20.29;92.79;99118.84;1705829;84;20420;-78
2022/07/15 12:36:13;;;;;;;;;;;;;;;20.28;91.14;99115.26;1681376;84;20102;-78
2022/07/15 12:38:44;;;;;;;;;;;;;;;20.25;90.25;99113.25;1681334;84;20129;-88
2022/07/15 12:41:25;;;;;;;;;;;;;;;20.26;89.37;99101.51;1682743;84;20086;-79
2022/07/15 12:44:06;;;;;;;;;;;;;;;20.35;88.29;99101.36;1681876;84;20164;-81
2022/07/15 12:46:57;;;;;;;;;;;;;;;20.52;89.11;99102.65;1705976;84;20102;-79
2022/07/15 12:49:44;;;;;;;;;;;;;;;20.86;88.62;99095.34;1706731;83;20086;-87
2022/07/15 12:52:27;;;;;;;;;;;;;;;21.25;82.98;99092.65;1706207;84;21160;-73
2022/07/15 12:54:57;;;;;;;;;;;;;;;21.50;82.57;99085.64;1661456;84;20141;-75
2022/07/15 12:57:35;;;;;;;;;;;;;;;21.72;80.30;99093.60;1706130;84;20098;-77
2022/07/15 13:00:08;;;;;;;;;;;;;;;21.89;79.66;99091.98;1705965;84;20444;-78
2022/07/15 13:03:07;;;;;;;;;;;;;;;22.15;77.16;99088.52;1681261;84;20106;-82